Time;durP1;ratioP1;P1;durP2;ratioP2;P2;SDS_P1;SDS_P2;PMS_P1;PMS_P2;Temp;Humidity;BMP_temperature;BMP_pressure;BME280_temperature;BME280_humidity;BME280_pressure;Samples;Min_cycle;Max_cycle;Signal;HPM_P1;HPM_P2
2022/01/20 00:00:22;;;;;;;7.38;2.58;;;;;;;;;;5045249;28;20570;-73
2022/01/20 00:02:56;;;;;;;8.20;2.95;;;;;;;;;;5043829;28;20693;-72
2022/01/20 00:05:34;;;;;;;6.38;2.95;;;;;;;;;;5043078;28;20268;-73
2022/01/20 00:08:11;;;;;;;4.53;3.78;;;;;;;;;;5048443;28;20724;-71
2022/01/20 00:27:11;;;;;;;6.95;2.83;;;;;;;;;;5046601;28;20238;-71
2022/01/20 00:30:05;;;;;;;8.65;3.25;;;;;;;;;;5049321;28;20195;-70
2022/01/20 00:32:41;;;;;;;6.97;2.65;;;;;;;;;;5046832;28;20290;-69
2022/01/20 00:35:18;;;;;;;7.68;2.95;;;;;;;;;;5047861;28;20642;-72
2022/01/20 00:37:44;;;;;;;4.65;2.85;;;;;;;;;;5044239;28;20199;-71
2022/01/20 00:40:13;;;;;;;11.40;2.80;;;;;;;;;;5050367;28;20195;-71
2022/01/20 00:42:40;;;;;;;6.28;2.28;;;;;;;;;;5047744;28;21028;-70
2022/01/20 00:45:08;;;;;;;17.00;4.05;;;;;;;;;;5040236;28;20714;-71
2022/01/20 00:47:35;;;;;;;8.25;3.05;;;;;;;;;;5041440;28;20194;-71
2022/01/20 00:50:02;;;;;;;9.15;2.80;;;;;;;;;;5044978;28;20191;-72
2022/01/20 00:52:29;;;;;;;7.38;2.40;;;;;;;;;;5030913;28;20210;-72
2022/01/20 00:54:56;;;;;;;7.30;2.28;;;;;;;;;;5038011;28;20594;-72
2022/01/20 00:57:24;;;;;;;9.13;3.42;;;;;;;;;;5045628;28;20198;-73
2022/01/20 00:59:51;;;;;;;10.43;2.85;;;;;;;;;;5043195;28;20206;-71
2022/01/20 01:02:19;;;;;;;5.72;2.45;;;;;;;;;;5043010;28;20196;-70
2022/01/20 01:04:46;;;;;;;13.77;3.78;;;;;;;;;;5046140;28;20459;-72
2022/01/20 01:07:31;;;;;;;9.48;3.08;;;;;;;;;;5048157;28;20218;-72
2022/01/20 01:09:58;;;;;;;7.55;2.40;;;;;;;;;;5035346;28;20230;-72
2022/01/20 01:12:35;;;;;;;10.38;2.90;;;;;;;;;;5042976;28;20758;-71
2022/01/20 01:15:06;;;;;;;6.97;2.90;;;;;;;;;;5046216;28;20637;-73
2022/01/20 01:20:25;;;;;;;7.20;2.25;;;;;;;;;;4987432;28;20362;-71
2022/01/20 01:22:52;;;;;;;6.55;2.58;;;;;;;;;;5052125;28;20288;-71
2022/01/20 01:25:19;;;;;;;5.10;2.13;;;;;;;;;;5046299;28;20269;-71
2022/01/20 01:27:47;;;;;;;11.20;3.58;;;;;;;;;;5049524;28;20210;-70
2022/01/20 01:30:30;;;;;;;5.30;2.50;;;;;;;;;;5044289;28;20206;-72
2022/01/20 01:32:58;;;;;;;7.05;2.40;;;;;;;;;;5048912;28;20685;-71
2022/01/20 01:35:27;;;;;;;5.38;2.38;;;;;;;;;;5049544;28;20199;-71
2022/01/20 01:40:41;;;;;;;8.88;2.85;;;;;;;;;;5049209;28;20198;-72
2022/01/20 01:43:19;;;;;;;10.85;3.03;;;;;;;;;;5043653;28;20202;-73
2022/01/20 01:45:48;;;;;;;9.27;2.75;;;;;;;;;;5037960;28;20226;-72
2022/01/20 01:48:15;;;;;;;8.52;2.17;;;;;;;;;;5040356;28;20192;-71
2022/01/20 01:50:42;;;;;;;4.63;2.20;;;;;;;;;;5033803;28;20548;-72
2022/01/20 01:53:09;;;;;;;6.38;2.33;;;;;;;;;;5051967;28;20195;-72
2022/01/20 01:55:37;;;;;;;10.20;4.75;;;;;;;;;;5048894;28;20187;-70
2022/01/20 01:58:04;;;;;;;11.18;2.90;;;;;;;;;;5052472;28;20700;-71
2022/01/20 02:00:33;;;;;;;5.20;2.08;;;;;;;;;;5050582;28;20199;-71
2022/01/20 02:03:00;;;;;;;11.38;2.72;;;;;;;;;;5049094;28;20275;-72
2022/01/20 02:05:27;;;;;;;4.80;2.25;;;;;;;;;;5049594;28;20202;-74
2022/01/20 02:18:54;;;;;;;7.65;2.30;;;;;;;;;;5045345;28;20310;-74
2022/01/20 02:21:22;;;;;;;6.78;2.63;;;;;;;;;;5036365;28;20198;-70
2022/01/20 02:23:50;;;;;;;7.90;1.75;;;;;;;;;;5039004;28;20203;-73
2022/01/20 02:26:17;;;;;;;5.40;2.45;;;;;;;;;;5050909;28;20222;-70
2022/01/20 02:28:46;;;;;;;9.77;2.90;;;;;;;;;;5050122;28;20662;-71
2022/01/20 02:31:13;;;;;;;6.68;2.35;;;;;;;;;;5052359;28;20293;-71
2022/01/20 02:33:40;;;;;;;12.55;3.28;;;;;;;;;;5056623;28;20605;-71
2022/01/20 02:36:11;;;;;;;8.07;1.95;;;;;;;;;;5043426;28;20203;-72
2022/01/20 02:38:43;;;;;;;7.65;3.20;;;;;;;;;;5049419;28;20289;-72
2022/01/20 02:46:41;;;;;;;6.43;2.83;;;;;;;;;;5052291;28;20228;-71
2022/01/20 02:49:08;;;;;;;5.30;1.92;;;;;;;;;;5049617;28;20267;-71
2022/01/20 02:51:36;;;;;;;12.02;3.75;;;;;;;;;;5056776;28;20239;-71
2022/01/20 02:54:05;;;;;;;5.50;2.85;;;;;;;;;;5045581;28;20199;-71
2022/01/20 02:56:32;;;;;;;6.45;2.25;;;;;;;;;;5042401;28;20264;-72
2022/01/20 02:58:59;;;;;;;4.78;1.80;;;;;;;;;;5049432;28;20614;-70
2022/01/20 03:01:26;;;;;;;11.60;2.67;;;;;;;;;;5051124;28;20249;-74
2022/01/20 03:03:53;;;;;;;7.68;2.00;;;;;;;;;;5052103;28;20674;-72
2022/01/20 03:06:20;;;;;;;6.25;1.98;;;;;;;;;;5055868;28;20211;-72
2022/01/20 03:08:47;;;;;;;5.88;1.80;;;;;;;;;;5051485;28;20198;-72
2022/01/20 03:11:16;;;;;;;4.72;2.15;;;;;;;;;;5048394;28;20211;-73
2022/01/20 03:13:43;;;;;;;6.97;2.55;;;;;;;;;;5041708;28;20622;-74
2022/01/20 03:16:10;;;;;;;6.15;2.00;;;;;;;;;;5037520;28;20245;-74
2022/01/20 03:18:37;;;;;;;2.80;2.50;;;;;;;;;;5050296;28;20650;-74
2022/01/20 03:21:04;;;;;;;4.65;1.90;;;;;;;;;;5044412;28;20196;-74
2022/01/20 03:23:31;;;;;;;10.07;2.50;;;;;;;;;;5039371;28;20199;-74
2022/01/20 03:25:58;;;;;;;8.88;2.10;;;;;;;;;;5049526;28;20740;-74
2022/01/20 03:28:26;;;;;;;5.10;1.90;;;;;;;;;;5046289;28;20203;-74
2022/01/20 03:30:53;;;;;;;6.20;1.77;;;;;;;;;;5046221;28;20252;-74
2022/01/20 03:33:20;;;;;;;6.70;2.03;;;;;;;;;;5048606;28;20654;-74
2022/01/20 03:35:48;;;;;;;4.88;1.85;;;;;;;;;;5050670;28;20199;-74
2022/01/20 03:38:15;;;;;;;8.95;2.67;;;;;;;;;;5047709;28;20667;-74
2022/01/20 03:40:42;;;;;;;5.15;1.88;;;;;;;;;;5036730;28;20195;-74
2022/01/20 03:43:09;;;;;;;9.00;2.60;;;;;;;;;;5045959;28;20203;-74
2022/01/20 03:45:38;;;;;;;4.80;1.85;;;;;;;;;;5032141;28;20219;-74
2022/01/20 03:48:09;;;;;;;6.43;1.85;;;;;;;;;;5045057;28;20694;-74
2022/01/20 03:53:22;;;;;;;9.05;3.38;;;;;;;;;;5039591;28;20220;-74
2022/01/20 03:55:49;;;;;;;6.25;1.98;;;;;;;;;;5044222;28;20264;-74
2022/01/20 03:58:16;;;;;;;8.95;2.75;;;;;;;;;;5046568;28;20196;-74
2022/01/20 04:00:45;;;;;;;11.05;2.15;;;;;;;;;;5037392;28;20666;-74
2022/01/20 04:03:13;;;;;;;5.15;1.30;;;;;;;;;;5049345;28;20677;-73
2022/01/20 04:05:52;;;;;;;12.80;3.17;;;;;;;;;;5047050;28;20191;-74
2022/01/20 04:08:19;;;;;;;6.80;1.50;;;;;;;;;;5058477;28;20238;-74
2022/01/20 04:10:46;;;;;;;4.10;2.28;;;;;;;;;;5046423;28;20195;-74
2022/01/20 04:13:14;;;;;;;6.57;2.17;;;;;;;;;;5044968;28;20187;-74
2022/01/20 04:15:41;;;;;;;18.92;2.25;;;;;;;;;;5035112;28;20207;-74
2022/01/20 04:18:11;;;;;;;7.88;2.10;;;;;;;;;;5043963;28;20191;-74
2022/01/20 04:20:39;;;;;;;13.02;2.90;;;;;;;;;;5051995;28;20210;-74
2022/01/20 04:23:06;;;;;;;7.95;1.83;;;;;;;;;;5038136;28;20252;-73
2022/01/20 04:25:33;;;;;;;5.15;1.70;;;;;;;;;;5047549;28;20658;-74
2022/01/20 04:28:01;;;;;;;6.78;2.95;;;;;;;;;;5041039;28;20260;-74
2022/01/20 04:30:28;;;;;;;4.53;1.60;;;;;;;;;;5045268;28;20249;-72
2022/01/20 04:32:55;;;;;;;7.18;2.22;;;;;;;;;;5049114;28;20277;-73
2022/01/20 04:35:23;;;;;;;13.55;2.45;;;;;;;;;;5048212;28;20199;-74
2022/01/20 04:37:53;;;;;;;4.35;2.00;;;;;;;;;;5045048;28;20196;-73
2022/01/20 04:40:20;;;;;;;8.35;2.65;;;;;;;;;;5039991;28;20673;-73
2022/01/20 04:42:49;;;;;;;3.00;1.70;;;;;;;;;;5048177;28;20199;-73
2022/01/20 04:45:21;;;;;;;6.78;2.13;;;;;;;;;;5049851;28;20219;-73
2022/01/20 04:47:56;;;;;;;4.63;1.80;;;;;;;;;;5045355;28;20230;-73
2022/01/20 04:58:39;;;;;;;6.53;1.80;;;;;;;;;;5031320;28;20260;-72
2022/01/20 05:01:07;;;;;;;8.15;2.35;;;;;;;;;;5042631;28;20198;-72
2022/01/20 05:03:34;;;;;;;8.27;3.70;;;;;;;;;;5042989;28;20688;-73
2022/01/20 05:06:03;;;;;;;9.45;2.35;;;;;;;;;;5039925;28;20195;-72
2022/01/20 05:08:31;;;;;;;6.78;2.45;;;;;;;;;;5046175;28;20223;-72
2022/01/20 05:11:01;;;;;;;7.07;2.00;;;;;;;;;;5060905;28;20468;-72
2022/01/20 05:13:33;;;;;;;5.70;1.95;;;;;;;;;;5048522;28;20273;-72
2022/01/20 05:16:01;;;;;;;5.72;2.40;;;;;;;;;;5042744;28;20260;-72
2022/01/20 05:18:28;;;;;;;8.57;3.03;;;;;;;;;;5042464;28;20392;-71
2022/01/20 05:20:55;;;;;;;6.30;1.50;;;;;;;;;;5043556;28;20222;-72
2022/01/20 05:23:23;;;;;;;9.20;1.30;;;;;;;;;;5046085;28;20196;-71
2022/01/20 05:25:51;;;;;;;6.28;2.33;;;;;;;;;;5043907;28;20202;-74
2022/01/20 05:28:18;;;;;;;5.80;1.48;;;;;;;;;;5043735;28;20222;-74
2022/01/20 05:30:45;;;;;;;12.80;2.03;;;;;;;;;;5044692;28;20720;-74
2022/01/20 05:33:12;;;;;;;4.95;1.90;;;;;;;;;;5050107;28;20191;-74
2022/01/20 05:35:39;;;;;;;6.53;2.20;;;;;;;;;;5041537;28;20640;-74
2022/01/20 05:38:06;;;;;;;3.30;1.80;;;;;;;;;;5048258;28;20646;-74
2022/01/20 05:40:35;;;;;;;7.85;3.10;;;;;;;;;;5042574;28;20195;-74
2022/01/20 05:43:03;;;;;;;5.90;1.65;;;;;;;;;;5045252;28;20199;-75
2022/01/20 05:45:30;;;;;;;2.80;1.20;;;;;;;;;;5039252;28;20230;-74
2022/01/20 05:48:08;;;;;;;6.95;1.70;;;;;;;;;;5049262;28;20229;-75
2022/01/20 05:50:35;;;;;;;6.03;1.60;;;;;;;;;;5051112;28;20190;-74
2022/01/20 05:53:04;;;;;;;4.63;1.60;;;;;;;;;;5055988;28;20198;-74
2022/01/20 05:55:32;;;;;;;4.05;1.45;;;;;;;;;;5062267;28;20215;-75
2022/01/20 05:58:00;;;;;;;7.78;2.10;;;;;;;;;;5030853;28;20195;-75
2022/01/20 06:00:29;;;;;;;4.93;1.92;;;;;;;;;;5045965;28;20242;-74
2022/01/20 06:05:42;;;;;;;6.05;1.50;;;;;;;;;;5047743;28;20225;-75
2022/01/20 06:08:09;;;;;;;7.15;1.77;;;;;;;;;;5040931;28;20216;-74
2022/01/20 06:10:36;;;;;;;3.78;1.40;;;;;;;;;;5056837;28;20665;-75
2022/01/20 06:13:05;;;;;;;5.22;1.35;;;;;;;;;;5049741;28;20199;-76
2022/01/20 06:15:32;;;;;;;4.70;2.30;;;;;;;;;;5048966;28;20198;-75
2022/01/20 06:18:00;;;;;;;3.65;1.50;;;;;;;;;;5062715;28;20653;-75
2022/01/20 06:20:27;;;;;;;4.65;1.55;;;;;;;;;;5045152;28;20195;-74
2022/01/20 06:22:54;;;;;;;5.95;2.03;;;;;;;;;;5052849;28;20716;-74
2022/01/20 06:25:21;;;;;;;3.00;1.45;;;;;;;;;;5051983;28;20658;-75
2022/01/20 06:27:48;;;;;;;4.10;1.67;;;;;;;;;;5046420;28;20227;-73
2022/01/20 06:30:17;;;;;;;7.85;2.10;;;;;;;;;;5039425;28;20196;-73
2022/01/20 06:32:44;;;;;;;17.65;2.03;;;;;;;;;;5046967;28;20202;-73
2022/01/20 06:35:12;;;;;;;2.83;1.45;;;;;;;;;;5048000;28;20207;-74
2022/01/20 06:37:39;;;;;;;5.45;1.65;;;;;;;;;;5045756;28;20593;-73
2022/01/20 06:40:07;;;;;;;8.93;1.35;;;;;;;;;;5052632;28;20650;-74
2022/01/20 06:42:34;;;;;;;6.00;1.65;;;;;;;;;;5054709;28;20606;-73
2022/01/20 06:45:01;;;;;;;4.53;1.40;;;;;;;;;;5055928;28;20554;-73
2022/01/20 06:47:30;;;;;;;9.52;1.95;;;;;;;;;;5046436;28;20230;-73
2022/01/20 06:49:57;;;;;;;4.07;2.15;;;;;;;;;;5052149;28;20199;-73
2022/01/20 06:52:24;;;;;;;7.00;1.55;;;;;;;;;;5052817;28;20194;-73
2022/01/20 06:54:51;;;;;;;2.30;1.73;;;;;;;;;;5057856;28;20202;-74
2022/01/20 06:57:18;;;;;;;6.72;1.38;;;;;;;;;;5055937;28;20585;-74
2022/01/20 06:59:45;;;;;;;3.55;1.58;;;;;;;;;;5038945;28;20218;-74
2022/01/20 07:02:12;;;;;;;2.97;1.30;;;;;;;;;;5036068;28;20207;-73
2022/01/20 07:04:41;;;;;;;10.02;1.80;;;;;;;;;;5046195;28;20662;-75
2022/01/20 07:07:08;;;;;;;8.07;1.70;;;;;;;;;;5036749;28;20218;-74
2022/01/20 07:09:36;;;;;;;5.03;1.42;;;;;;;;;;5044357;28;20614;-75
2022/01/20 07:12:03;;;;;;;6.88;1.80;;;;;;;;;;5047272;28;20195;-75
2022/01/20 07:14:30;;;;;;;2.70;1.30;;;;;;;;;;5045093;28;20325;-75
2022/01/20 07:16:57;;;;;;;4.80;1.42;;;;;;;;;;5053819;28;20202;-74
2022/01/20 07:19:25;;;;;;;4.13;1.50;;;;;;;;;;5049629;28;20202;-75
2022/01/20 07:21:54;;;;;;;2.38;1.23;;;;;;;;;;5037658;28;20215;-74
2022/01/20 07:24:21;;;;;;;3.97;1.50;;;;;;;;;;5040068;28;20208;-73
2022/01/20 07:26:48;;;;;;;7.45;1.05;;;;;;;;;;5046305;28;20592;-74
2022/01/20 07:29:15;;;;;;;8.20;1.85;;;;;;;;;;5044986;28;20704;-73
2022/01/20 07:31:42;;;;;;;3.92;1.25;;;;;;;;;;5037376;28;20203;-74
2022/01/20 07:34:09;;;;;;;6.10;1.70;;;;;;;;;;5043801;28;20203;-74
2022/01/20 07:36:36;;;;;;;3.95;1.85;;;;;;;;;;5056448;28;20194;-74
2022/01/20 07:39:05;;;;;;;7.47;1.80;;;;;;;;;;5047212;28;20194;-74
2022/01/20 07:41:32;;;;;;;7.15;1.60;;;;;;;;;;5051240;28;20674;-74
2022/01/20 07:43:59;;;;;;;9.13;1.90;;;;;;;;;;5052062;28;20803;-74
2022/01/20 07:46:26;;;;;;;2.17;1.30;;;;;;;;;;5046219;28;20226;-75
2022/01/20 07:48:53;;;;;;;6.40;1.63;;;;;;;;;;5055984;28;20225;-74
2022/01/20 07:51:20;;;;;;;7.03;1.65;;;;;;;;;;5047300;28;20246;-73
2022/01/20 07:53:48;;;;;;;4.60;1.75;;;;;;;;;;5062685;28;20600;-73
2022/01/20 07:56:16;;;;;;;5.88;2.20;;;;;;;;;;5058118;28;20198;-74
2022/01/20 07:58:43;;;;;;;8.10;1.85;;;;;;;;;;5044760;28;20250;-73
2022/01/20 08:01:10;;;;;;;4.95;1.45;;;;;;;;;;5035608;28;20199;-74
2022/01/20 08:03:37;;;;;;;5.72;1.60;;;;;;;;;;5045553;28;20194;-74
2022/01/20 08:06:04;;;;;;;5.88;2.28;;;;;;;;;;5037635;28;20609;-74
2022/01/20 08:08:32;;;;;;;9.05;1.88;;;;;;;;;;5049969;28;20313;-74
2022/01/20 08:10:59;;;;;;;8.60;2.35;;;;;;;;;;5047734;28;20194;-73
2022/01/20 08:13:27;;;;;;;6.72;2.30;;;;;;;;;;5050355;28;20203;-74
2022/01/20 08:15:54;;;;;;;2.60;1.25;;;;;;;;;;5043074;28;20269;-72
2022/01/20 08:18:21;;;;;;;3.53;1.63;;;;;;;;;;5042252;28;20199;-73
2022/01/20 08:20:48;;;;;;;3.55;1.85;;;;;;;;;;5046778;28;20385;-73
2022/01/20 08:23:15;;;;;;;5.72;1.70;;;;;;;;;;5046945;28;20252;-73
2022/01/20 08:25:43;;;;;;;5.90;1.90;;;;;;;;;;5043950;28;20613;-72
2022/01/20 08:28:10;;;;;;;8.57;1.77;;;;;;;;;;5046220;28;20985;-73
2022/01/20 08:30:38;;;;;;;5.88;1.40;;;;;;;;;;5038713;28;20221;-72
2022/01/20 08:33:05;;;;;;;13.23;2.42;;;;;;;;;;5056076;28;20284;-72
2022/01/20 08:35:32;;;;;;;3.45;1.40;;;;;;;;;;5042333;28;20210;-72
2022/01/20 08:38:03;;;;;;;9.98;1.50;;;;;;;;;;5047002;28;20213;-73
2022/01/20 08:40:30;;;;;;;4.20;1.42;;;;;;;;;;5044112;28;20535;-73
2022/01/20 08:42:58;;;;;;;8.82;2.17;;;;;;;;;;5049432;28;20198;-72
2022/01/20 08:45:26;;;;;;;2.63;1.38;;;;;;;;;;5040414;28;20372;-75
2022/01/20 08:47:56;;;;;;;3.53;1.73;;;;;;;;;;5052448;28;20264;-73
2022/01/20 08:50:24;;;;;;;4.15;1.75;;;;;;;;;;5049803;28;20618;-74
2022/01/20 08:52:51;;;;;;;7.18;2.28;;;;;;;;;;5051948;28;20248;-73
2022/01/20 08:55:18;;;;;;;2.72;1.63;;;;;;;;;;5049513;28;20199;-76
2022/01/20 08:57:45;;;;;;;7.65;2.60;;;;;;;;;;5041375;28;20283;-76
2022/01/20 09:00:13;;;;;;;4.15;1.65;;;;;;;;;;5033621;28;20199;-77
2022/01/20 09:02:40;;;;;;;2.45;1.52;;;;;;;;;;5049153;28;20194;-77
2022/01/20 09:05:09;;;;;;;5.03;2.10;;;;;;;;;;5051790;28;20252;-77
2022/01/20 09:07:37;;;;;;;4.13;1.45;;;;;;;;;;5040578;28;20284;-77
2022/01/20 09:10:07;;;;;;;4.55;1.85;;;;;;;;;;5047677;28;20202;-77
2022/01/20 09:15:29;;;;;;;4.72;1.98;;;;;;;;;;5046225;28;20301;-78
2022/01/20 09:17:56;;;;;;;6.50;2.30;;;;;;;;;;5045491;28;20281;-78
2022/01/20 09:20:25;;;;;;;6.20;1.40;;;;;;;;;;5047963;28;20621;-78
2022/01/20 09:22:54;;;;;;;6.18;2.33;;;;;;;;;;5043015;28;20229;-78
2022/01/20 09:25:22;;;;;;;6.05;2.28;;;;;;;;;;5047685;28;20565;-77
2022/01/20 09:27:50;;;;;;;8.52;2.20;;;;;;;;;;5054045;28;20655;-77
2022/01/20 09:30:19;;;;;;;4.07;1.95;;;;;;;;;;5035748;28;20205;-78
2022/01/20 09:32:56;;;;;;;5.90;1.60;;;;;;;;;;5047025;28;20294;-77
2022/01/20 09:35:25;;;;;;;5.20;1.85;;;;;;;;;;5045290;28;20843;-78
2022/01/20 09:37:52;;;;;;;4.20;1.65;;;;;;;;;;5039797;28;20245;-78
2022/01/20 09:40:19;;;;;;;6.25;1.50;;;;;;;;;;5052913;28;20620;-79
2022/01/20 09:42:46;;;;;;;5.30;1.90;;;;;;;;;;5061191;28;20210;-78
2022/01/20 09:45:15;;;;;;;4.07;1.70;;;;;;;;;;5050520;28;20219;-78
2022/01/20 09:47:43;;;;;;;3.47;1.17;;;;;;;;;;5059525;28;20745;-78
2022/01/20 09:50:10;;;;;;;8.57;1.67;;;;;;;;;;5050670;28;20200;-77
2022/01/20 09:52:39;;;;;;;6.35;1.75;;;;;;;;;;5045099;28;20199;-78
2022/01/20 09:55:06;;;;;;;3.17;1.75;;;;;;;;;;5069230;28;20198;-77
2022/01/20 09:57:33;;;;;;;6.57;2.38;;;;;;;;;;5058417;28;20209;-79
2022/01/20 10:00:03;;;;;;;4.35;1.48;;;;;;;;;;5052136;28;20194;-77
2022/01/20 10:02:30;;;;;;;6.38;2.35;;;;;;;;;;5066280;28;20207;-78
2022/01/20 10:04:57;;;;;;;2.72;1.42;;;;;;;;;;5041464;28;20666;-77
2022/01/20 10:07:31;;;;;;;6.05;1.70;;;;;;;;;;5044367;28;20573;-77
2022/01/20 10:10:00;;;;;;;3.28;1.33;;;;;;;;;;5046445;28;20222;-77
2022/01/20 10:12:29;;;;;;;5.88;1.38;;;;;;;;;;5046379;28;20612;-77
2022/01/20 10:14:57;;;;;;;7.50;1.90;;;;;;;;;;5050715;28;20263;-77
2022/01/20 10:17:25;;;;;;;5.90;2.17;;;;;;;;;;5036310;28;20321;-78
2022/01/20 10:19:53;;;;;;;3.00;1.35;;;;;;;;;;5040466;28;20203;-77
2022/01/20 10:22:23;;;;;;;6.45;2.22;;;;;;;;;;5052825;28;20280;-78
2022/01/20 10:25:02;;;;;;;3.72;2.40;;;;;;;;;;5045137;28;20669;-77
2022/01/20 10:27:30;;;;;;;4.30;1.65;;;;;;;;;;5045496;28;20261;-78
2022/01/20 10:29:58;;;;;;;3.80;1.63;;;;;;;;;;5046957;28;20219;-76
2022/01/20 10:32:25;;;;;;;9.70;1.90;;;;;;;;;;5039087;28;20214;-79
2022/01/20 10:35:01;;;;;;;5.63;1.30;;;;;;;;;;5036866;28;20902;-78
2022/01/20 10:37:28;;;;;;;8.55;2.28;;;;;;;;;;5041605;28;20198;-78
2022/01/20 10:40:04;;;;;;;2.55;2.25;;;;;;;;;;5041080;28;20202;-78
2022/01/20 10:42:36;;;;;;;6.53;1.73;;;;;;;;;;5047193;28;20201;-78
2022/01/20 10:45:04;;;;;;;2.42;1.20;;;;;;;;;;5042167;28;20221;-79
2022/01/20 10:47:33;;;;;;;4.70;2.10;;;;;;;;;;5040696;28;20206;-77
2022/01/20 10:50:10;;;;;;;6.80;1.58;;;;;;;;;;5040325;28;20230;-78
2022/01/20 10:52:38;;;;;;;2.40;1.40;;;;;;;;;;5048666;28;20613;-78
2022/01/20 10:55:07;;;;;;;3.55;1.45;;;;;;;;;;5049509;28;20202;-77
2022/01/20 10:57:36;;;;;;;3.45;2.25;;;;;;;;;;5045394;28;20202;-78
2022/01/20 11:00:06;;;;;;;6.35;1.58;;;;;;;;;;5044965;28;20199;-79
2022/01/20 11:02:33;;;;;;;4.18;2.15;;;;;;;;;;5047224;28;20218;-77
2022/01/20 11:05:01;;;;;;;4.45;1.48;;;;;;;;;;5044490;28;20203;-78
2022/01/20 11:07:28;;;;;;;3.25;1.50;;;;;;;;;;5047416;28;20199;-78
2022/01/20 11:10:00;;;;;;;3.10;1.65;;;;;;;;;;5046818;28;20215;-78
2022/01/20 11:12:27;;;;;;;7.28;1.80;;;;;;;;;;5045367;28;20226;-77
2022/01/20 11:14:57;;;;;;;7.50;1.35;;;;;;;;;;5052657;28;20194;-78
2022/01/20 11:17:25;;;;;;;3.28;1.75;;;;;;;;;;5052273;28;20202;-79
2022/01/20 11:19:53;;;;;;;7.82;1.90;;;;;;;;;;5043952;28;20202;-78
2022/01/20 11:22:21;;;;;;;9.10;2.33;;;;;;;;;;5040660;28;20659;-78
2022/01/20 11:24:58;;;;;;;5.60;1.50;;;;;;;;;;5046862;28;20211;-78
2022/01/20 11:27:34;;;;;;;6.35;1.60;;;;;;;;;;5039640;28;20215;-78
2022/01/20 11:30:13;;;;;;;6.85;1.85;;;;;;;;;;5042864;28;20223;-77
2022/01/20 11:32:41;;;;;;;8.80;1.98;;;;;;;;;;5046697;28;20221;-78
2022/01/20 11:35:09;;;;;;;5.82;1.67;;;;;;;;;;5046327;28;20202;-79
2022/01/20 11:37:37;;;;;;;2.88;1.52;;;;;;;;;;5030108;28;20203;-79
2022/01/20 11:40:12;;;;;;;4.78;2.20;;;;;;;;;;5042348;28;20202;-78
2022/01/20 11:42:39;;;;;;;6.68;2.17;;;;;;;;;;5047566;28;20209;-79
2022/01/20 11:45:21;;;;;;;5.82;2.20;;;;;;;;;;5038696;28;20219;-77
2022/01/20 11:47:49;;;;;;;4.88;1.65;;;;;;;;;;5045023;28;20199;-77
2022/01/20 11:50:16;;;;;;;5.82;1.80;;;;;;;;;;5046125;28;20253;-78
2022/01/20 11:52:44;;;;;;;7.25;1.45;;;;;;;;;;5031709;28;20689;-79
2022/01/20 11:55:11;;;;;;;10.02;2.70;;;;;;;;;;5037819;28;20771;-79
2022/01/20 11:57:38;;;;;;;6.15;1.70;;;;;;;;;;5047848;28;20729;-77
2022/01/20 12:00:18;;;;;;;5.55;2.55;;;;;;;;;;5043150;28;20206;-77
2022/01/20 12:02:45;;;;;;;5.95;1.38;;;;;;;;;;5046033;28;20211;-79
2022/01/20 12:05:19;;;;;;;2.35;1.20;;;;;;;;;;5042877;28;20277;-79
2022/01/20 12:07:46;;;;;;;4.60;1.75;;;;;;;;;;5043429;28;20207;-78
2022/01/20 12:13:17;;;;;;;5.35;1.80;;;;;;;;;;5037401;28;20216;-78
2022/01/20 12:15:51;;;;;;;6.03;1.63;;;;;;;;;;5041375;28;20209;-77
2022/01/20 12:18:18;;;;;;;5.00;1.73;;;;;;;;;;5047897;28;20191;-78
2022/01/20 12:20:46;;;;;;;5.22;1.55;;;;;;;;;;5038610;28;20199;-78
2022/01/20 12:23:14;;;;;;;7.22;1.90;;;;;;;;;;5045992;28;20202;-79
2022/01/20 12:25:41;;;;;;;6.68;1.85;;;;;;;;;;5041065;28;20214;-78
2022/01/20 12:28:09;;;;;;;6.03;1.73;;;;;;;;;;5046692;28;20838;-77
2022/01/20 12:30:37;;;;;;;11.45;2.58;;;;;;;;;;5038698;28;20296;-79
2022/01/20 12:33:07;;;;;;;7.40;2.20;;;;;;;;;;5047559;28;20285;-78
2022/01/20 12:35:40;;;;;;;3.05;1.50;;;;;;;;;;5044164;28;20198;-77
2022/01/20 12:38:19;;;;;;;6.47;1.70;;;;;;;;;;5042902;28;20643;-76
2022/01/20 12:40:48;;;;;;;6.15;2.00;;;;;;;;;;5041885;28;20948;-77
2022/01/20 12:43:15;;;;;;;4.03;1.50;;;;;;;;;;5043417;28;20230;-78
2022/01/20 12:45:56;;;;;;;4.28;1.80;;;;;;;;;;5046090;28;20226;-77
2022/01/20 12:48:23;;;;;;;6.28;1.60;;;;;;;;;;5046237;28;20210;-78
2022/01/20 12:50:58;;;;;;;8.10;2.20;;;;;;;;;;5040975;28;20219;-79
2022/01/20 12:53:34;;;;;;;8.05;1.73;;;;;;;;;;5044611;28;20682;-79
2022/01/20 12:56:01;;;;;;;3.35;1.30;;;;;;;;;;5032667;28;20646;-78
2022/01/20 12:58:28;;;;;;;9.32;2.60;;;;;;;;;;5038706;28;20597;-77
2022/01/20 13:00:59;;;;;;;3.70;1.48;;;;;;;;;;5038096;28;20201;-78
2022/01/20 13:03:34;;;;;;;3.22;1.75;;;;;;;;;;5043258;28;20231;-78
2022/01/20 13:06:02;;;;;;;5.38;1.70;;;;;;;;;;5035578;28;20202;-78
2022/01/20 13:08:32;;;;;;;4.38;1.30;;;;;;;;;;5045042;28;20827;-78
2022/01/20 13:11:04;;;;;;;11.73;3.08;;;;;;;;;;5037555;28;20222;-79
2022/01/20 13:13:31;;;;;;;3.47;1.52;;;;;;;;;;5042269;28;20198;-79
2022/01/20 13:15:58;;;;;;;6.28;1.92;;;;;;;;;;5050323;28;20256;-79
2022/01/20 13:18:25;;;;;;;4.68;1.65;;;;;;;;;;5045811;28;20980;-78
2022/01/20 13:20:55;;;;;;;4.45;1.67;;;;;;;;;;5042549;28;20191;-79
2022/01/20 13:26:23;;;;;;;8.32;1.90;;;;;;;;;;4987664;28;20208;-78
2022/01/20 13:28:58;;;;;;;8.02;1.65;;;;;;;;;;4988877;28;20208;-79
2022/01/20 13:31:25;;;;;;;5.15;1.48;;;;;;;;;;5017927;28;20198;-79
2022/01/20 13:33:52;;;;;;;3.42;1.40;;;;;;;;;;5055428;28;20708;-78
2022/01/20 13:36:21;;;;;;;3.05;1.30;;;;;;;;;;5050169;28;20202;-80
2022/01/20 13:38:56;;;;;;;5.55;1.80;;;;;;;;;;5040314;28;20213;-79
2022/01/20 13:41:28;;;;;;;3.67;1.10;;;;;;;;;;5042345;28;20199;-79
2022/01/20 13:46:41;;;;;;;4.38;1.48;;;;;;;;;;5045146;28;20300;-80
2022/01/20 13:49:09;;;;;;;2.55;1.65;;;;;;;;;;5050194;28;20207;-76
2022/01/20 13:51:36;;;;;;;2.38;1.10;;;;;;;;;;5048780;28;20202;-78
2022/01/20 13:54:03;;;;;;;4.28;1.33;;;;;;;;;;5040352;28;20654;-79
2022/01/20 13:56:32;;;;;;;3.47;1.65;;;;;;;;;;5045895;28;20743;-78
2022/01/20 13:59:04;;;;;;;3.25;1.10;;;;;;;;;;5047368;28;20195;-78
2022/01/20 14:01:31;;;;;;;7.25;1.42;;;;;;;;;;5048841;28;20256;-79
2022/01/20 14:03:58;;;;;;;1.90;1.42;;;;;;;;;;5045334;28;20749;-79
2022/01/20 14:06:26;;;;;;;3.30;1.27;;;;;;;;;;5043162;28;20225;-80
2022/01/20 14:08:53;;;;;;;1.65;1.10;;;;;;;;;;5050740;28;20205;-78
2022/01/20 14:11:20;;;;;;;2.40;1.20;;;;;;;;;;5043654;28;20219;-79
2022/01/20 14:13:49;;;;;;;2.28;1.45;;;;;;;;;;5047156;28;20211;-80
2022/01/20 14:16:16;;;;;;;2.20;1.25;;;;;;;;;;5043067;28;20647;-79
2022/01/20 14:18:45;;;;;;;2.90;1.27;;;;;;;;;;5038606;28;20570;-77
2022/01/20 14:21:13;;;;;;;2.90;1.35;;;;;;;;;;5039001;28;20486;-79
2022/01/20 14:23:40;;;;;;;1.90;1.20;;;;;;;;;;5050148;28;20662;-78
2022/01/20 14:26:09;;;;;;;5.03;2.03;;;;;;;;;;5041734;28;20195;-78
2022/01/20 14:28:36;;;;;;;2.25;1.17;;;;;;;;;;5032303;28;20215;-76
2022/01/20 14:31:05;;;;;;;2.40;1.00;;;;;;;;;;5039469;28;20222;-79
2022/01/20 14:33:32;;;;;;;3.10;1.88;;;;;;;;;;5049470;28;20264;-78
2022/01/20 14:35:59;;;;;;;5.13;1.30;;;;;;;;;;5043342;28;20207;-77
2022/01/20 14:38:28;;;;;;;4.65;1.60;;;;;;;;;;5045356;28;20206;-78
2022/01/20 14:40:56;;;;;;;2.58;1.10;;;;;;;;;;5040563;28;20228;-76
2022/01/20 14:43:23;;;;;;;12.77;2.47;;;;;;;;;;5046705;28;20198;-77
2022/01/20 14:45:51;;;;;;;4.20;1.42;;;;;;;;;;5047991;28;20222;-78
2022/01/20 14:48:19;;;;;;;2.22;1.20;;;;;;;;;;5039121;28;20200;-77
2022/01/20 14:50:47;;;;;;;3.40;1.00;;;;;;;;;;5044027;28;20596;-79
2022/01/20 14:53:14;;;;;;;3.28;1.65;;;;;;;;;;5047471;28;20233;-79
2022/01/20 14:55:41;;;;;;;2.20;1.55;;;;;;;;;;5048040;28;20199;-78
2022/01/20 14:58:08;;;;;;;3.65;1.38;;;;;;;;;;5046711;28;20202;-79
2022/01/20 15:00:36;;;;;;;3.10;1.40;;;;;;;;;;5046194;28;20199;-78
2022/01/20 15:03:04;;;;;;;8.93;1.65;;;;;;;;;;5031718;28;20625;-80
2022/01/20 15:05:33;;;;;;;4.10;1.10;;;;;;;;;;5046980;28;20207;-80
2022/01/20 15:08:00;;;;;;;2.20;1.20;;;;;;;;;;5041467;28;20287;-79
2022/01/20 15:10:27;;;;;;;6.65;1.90;;;;;;;;;;5042194;28;20223;-78
2022/01/20 15:13:00;;;;;;;2.30;1.30;;;;;;;;;;5041422;28;20202;-78
2022/01/20 15:15:27;;;;;;;7.30;1.80;;;;;;;;;;5044287;28;20199;-79
2022/01/20 15:17:55;;;;;;;3.80;1.85;;;;;;;;;;5032313;28;20206;-78
2022/01/20 15:20:22;;;;;;;3.25;1.60;;;;;;;;;;5045636;28;20194;-79
2022/01/20 15:22:50;;;;;;;2.70;1.60;;;;;;;;;;5042866;28;20611;-78
2022/01/20 15:25:18;;;;;;;5.80;1.52;;;;;;;;;;5049510;28;20668;-79
2022/01/20 15:27:45;;;;;;;4.75;2.05;;;;;;;;;;5033700;28;20215;-79
2022/01/20 15:30:12;;;;;;;6.72;1.58;;;;;;;;;;5043869;28;20250;-78
2022/01/20 15:32:40;;;;;;;2.85;1.30;;;;;;;;;;5045007;28;20218;-78
2022/01/20 15:35:07;;;;;;;4.10;1.58;;;;;;;;;;5047101;28;20195;-79
2022/01/20 15:37:35;;;;;;;5.25;1.60;;;;;;;;;;5033504;28;20199;-78
2022/01/20 15:40:04;;;;;;;4.13;1.35;;;;;;;;;;5044936;28;20999;-79
2022/01/20 15:42:31;;;;;;;3.65;1.80;;;;;;;;;;5042108;28;20204;-78
2022/01/20 15:44:58;;;;;;;4.72;2.42;;;;;;;;;;5036842;28;20215;-78
2022/01/20 15:47:25;;;;;;;5.68;2.05;;;;;;;;;;5046470;28;20681;-78
2022/01/20 15:49:52;;;;;;;3.20;1.70;;;;;;;;;;5041269;28;20195;-77
2022/01/20 15:52:19;;;;;;;3.78;2.28;;;;;;;;;;5047883;28;20210;-77
2022/01/20 15:54:47;;;;;;;3.65;1.80;;;;;;;;;;5044295;28;20714;-78